sensor_id;sensor_type;location;lat;lon;timestamp;P1;durP1;ratioP1;P2;durP2;ratioP2
64598;SDS011;51008;51.504;11.548;2023-04-03T00:02:16;9.05;;;2.00;;
64598;SDS011;51008;51.504;11.548;2023-04-03T00:07:17;6.15;;;1.95;;
64598;SDS011;51008;51.504;11.548;2023-04-03T00:12:18;14.15;;;2.70;;
64598;SDS011;51008;51.504;11.548;2023-04-03T00:17:19;11.38;;;2.50;;
64598;SDS011;51008;51.504;11.548;2023-04-03T00:22:20;9.75;;;2.20;;
64598;SDS011;51008;51.504;11.548;2023-04-03T00:27:21;13.60;;;2.60;;
64598;SDS011;51008;51.504;11.548;2023-04-03T00:32:22;11.68;;;1.92;;
64598;SDS011;51008;51.504;11.548;2023-04-03T00:37:23;7.22;;;2.03;;
64598;SDS011;51008;51.504;11.548;2023-04-03T00:42:25;6.57;;;2.03;;
64598;SDS011;51008;51.504;11.548;2023-04-03T00:47:26;5.35;;;1.60;;
64598;SDS011;51008;51.504;11.548;2023-04-03T00:52:28;11.55;;;2.00;;
64598;SDS011;51008;51.504;11.548;2023-04-03T00:57:30;7.43;;;2.40;;
64598;SDS011;51008;51.504;11.548;2023-04-03T01:02:32;6.10;;;1.70;;
64598;SDS011;51008;51.504;11.548;2023-04-03T01:07:34;12.93;;;2.20;;
64598;SDS011;51008;51.504;11.548;2023-04-03T01:12:36;7.57;;;2.08;;
64598;SDS011;51008;51.504;11.548;2023-04-03T01:17:44;10.77;;;2.38;;
64598;SDS011;51008;51.504;11.548;2023-04-03T01:28:12;7.25;;;1.77;;
64598;SDS011;51008;51.504;11.548;2023-04-03T01:33:18;11.00;;;2.28;;
64598;SDS011;51008;51.504;11.548;2023-04-03T01:38:21;7.65;;;2.00;;
64598;SDS011;51008;51.504;11.548;2023-04-03T01:43:22;6.68;;;2.10;;
64598;SDS011;51008;51.504;11.548;2023-04-03T01:48:23;12.05;;;2.20;;
64598;SDS011;51008;51.504;11.548;2023-04-03T01:53:24;9.23;;;1.70;;
64598;SDS011;51008;51.504;11.548;2023-04-03T01:58:25;10.00;;;2.13;;
64598;SDS011;51008;51.504;11.548;2023-04-03T02:03:28;8.27;;;2.00;;
64598;SDS011;51008;51.504;11.548;2023-04-03T02:08:29;9.27;;;1.98;;
64598;SDS011;51008;51.504;11.548;2023-04-03T02:13:29;9.32;;;1.83;;
64598;SDS011;51008;51.504;11.548;2023-04-03T02:18:31;5.85;;;2.15;;
64598;SDS011;51008;51.504;11.548;2023-04-03T02:23:31;10.80;;;2.30;;
64598;SDS011;51008;51.504;11.548;2023-04-03T02:28:33;7.45;;;2.00;;
64598;SDS011;51008;51.504;11.548;2023-04-03T02:33:34;10.35;;;2.20;;
64598;SDS011;51008;51.504;11.548;2023-04-03T02:38:36;8.82;;;2.20;;
64598;SDS011;51008;51.504;11.548;2023-04-03T02:43:37;10.30;;;2.00;;
64598;SDS011;51008;51.504;11.548;2023-04-03T02:48:40;12.73;;;2.60;;
64598;SDS011;51008;51.504;11.548;2023-04-03T02:53:41;6.78;;;1.77;;
64598;SDS011;51008;51.504;11.548;2023-04-03T02:58:48;8.88;;;2.00;;
64598;SDS011;51008;51.504;11.548;2023-04-03T03:03:50;8.57;;;2.22;;
64598;SDS011;51008;51.504;11.548;2023-04-03T03:08:51;5.55;;;1.80;;
64598;SDS011;51008;51.504;11.548;2023-04-03T03:13:53;8.60;;;2.90;;
64598;SDS011;51008;51.504;11.548;2023-04-03T03:18:54;11.73;;;2.53;;
64598;SDS011;51008;51.504;11.548;2023-04-03T03:23:55;6.95;;;2.22;;
64598;SDS011;51008;51.504;11.548;2023-04-03T03:28:56;8.27;;;2.97;;
64598;SDS011;51008;51.504;11.548;2023-04-03T03:33:58;10.85;;;2.10;;
64598;SDS011;51008;51.504;11.548;2023-04-03T03:38:59;7.60;;;1.95;;
64598;SDS011;51008;51.504;11.548;2023-04-03T03:44:00;7.97;;;2.10;;
64598;SDS011;51008;51.504;11.548;2023-04-03T03:49:03;5.55;;;2.03;;
64598;SDS011;51008;51.504;11.548;2023-04-03T03:54:06;7.45;;;1.65;;
64598;SDS011;51008;51.504;11.548;2023-04-03T03:59:08;10.40;;;2.22;;
64598;SDS011;51008;51.504;11.548;2023-04-03T04:04:09;9.35;;;2.22;;
64598;SDS011;51008;51.504;11.548;2023-04-03T04:09:10;6.32;;;2.03;;
64598;SDS011;51008;51.504;11.548;2023-04-03T04:14:11;12.50;;;2.42;;
64598;SDS011;51008;51.504;11.548;2023-04-03T04:19:13;9.00;;;2.65;;
64598;SDS011;51008;51.504;11.548;2023-04-03T04:24:14;10.45;;;2.47;;
64598;SDS011;51008;51.504;11.548;2023-04-03T04:29:16;11.77;;;2.30;;
64598;SDS011;51008;51.504;11.548;2023-04-03T04:34:20;13.15;;;2.85;;
64598;SDS011;51008;51.504;11.548;2023-04-03T04:39:22;5.32;;;2.25;;
64598;SDS011;51008;51.504;11.548;2023-04-03T04:44:23;9.15;;;2.83;;
64598;SDS011;51008;51.504;11.548;2023-04-03T04:49:24;11.85;;;2.88;;
64598;SDS011;51008;51.504;11.548;2023-04-03T04:54:25;10.90;;;2.40;;
64598;SDS011;51008;51.504;11.548;2023-04-03T04:59:27;7.55;;;2.53;;
64598;SDS011;51008;51.504;11.548;2023-04-03T05:04:30;6.93;;;2.17;;
64598;SDS011;51008;51.504;11.548;2023-04-03T05:09:38;11.25;;;2.35;;
64598;SDS011;51008;51.504;11.548;2023-04-03T05:14:40;5.60;;;2.25;;
64598;SDS011;51008;51.504;11.548;2023-04-03T05:19:43;9.02;;;2.40;;
64598;SDS011;51008;51.504;11.548;2023-04-03T05:24:46;8.48;;;2.53;;
64598;SDS011;51008;51.504;11.548;2023-04-03T05:29:47;11.35;;;2.72;;
64598;SDS011;51008;51.504;11.548;2023-04-03T05:34:53;5.85;;;2.10;;
64598;SDS011;51008;51.504;11.548;2023-04-03T05:39:55;9.85;;;2.13;;
64598;SDS011;51008;51.504;11.548;2023-04-03T05:44:56;9.55;;;2.40;;
64598;SDS011;51008;51.504;11.548;2023-04-03T05:49:57;11.07;;;2.65;;
64598;SDS011;51008;51.504;11.548;2023-04-03T05:54:59;7.78;;;1.85;;
64598;SDS011;51008;51.504;11.548;2023-04-03T06:00:03;8.60;;;2.05;;
64598;SDS011;51008;51.504;11.548;2023-04-03T06:05:14;8.75;;;1.90;;
64598;SDS011;51008;51.504;11.548;2023-04-03T06:10:15;11.38;;;2.28;;
64598;SDS011;51008;51.504;11.548;2023-04-03T06:15:17;11.90;;;2.20;;
64598;SDS011;51008;51.504;11.548;2023-04-03T06:20:18;10.02;;;2.10;;
64598;SDS011;51008;51.504;11.548;2023-04-03T06:25:19;8.70;;;2.13;;
64598;SDS011;51008;51.504;11.548;2023-04-03T06:30:20;8.52;;;1.65;;
64598;SDS011;51008;51.504;11.548;2023-04-03T06:35:21;6.78;;;2.03;;
64598;SDS011;51008;51.504;11.548;2023-04-03T06:40:23;11.18;;;2.50;;
64598;SDS011;51008;51.504;11.548;2023-04-03T06:45:25;12.68;;;2.35;;
64598;SDS011;51008;51.504;11.548;2023-04-03T06:50:26;7.63;;;1.92;;
64598;SDS011;51008;51.504;11.548;2023-04-03T06:55:27;9.35;;;1.95;;
64598;SDS011;51008;51.504;11.548;2023-04-03T07:00:28;7.35;;;1.77;;
64598;SDS011;51008;51.504;11.548;2023-04-03T07:05:29;9.98;;;1.92;;
64598;SDS011;51008;51.504;11.548;2023-04-03T07:10:30;9.68;;;1.98;;
64598;SDS011;51008;51.504;11.548;2023-04-03T07:15:31;9.10;;;2.15;;
64598;SDS011;51008;51.504;11.548;2023-04-03T07:20:32;9.80;;;1.95;;
64598;SDS011;51008;51.504;11.548;2023-04-03T07:25:33;5.43;;;1.80;;
64598;SDS011;51008;51.504;11.548;2023-04-03T07:30:34;5.30;;;1.58;;
64598;SDS011;51008;51.504;11.548;2023-04-03T07:35:35;9.25;;;1.80;;
64598;SDS011;51008;51.504;11.548;2023-04-03T07:40:36;7.35;;;1.85;;
64598;SDS011;51008;51.504;11.548;2023-04-03T07:45:38;8.07;;;1.90;;
64598;SDS011;51008;51.504;11.548;2023-04-03T07:50:42;6.57;;;1.80;;
64598;SDS011;51008;51.504;11.548;2023-04-03T07:55:47;3.83;;;1.58;;
64598;SDS011;51008;51.504;11.548;2023-04-03T08:00:48;7.10;;;1.98;;
64598;SDS011;51008;51.504;11.548;2023-04-03T08:05:50;6.97;;;1.77;;
64598;SDS011;51008;51.504;11.548;2023-04-03T08:10:52;9.25;;;1.73;;
64598;SDS011;51008;51.504;11.548;2023-04-03T08:15:53;5.82;;;1.60;;
64598;SDS011;51008;51.504;11.548;2023-04-03T08:20:54;6.03;;;1.67;;
64598;SDS011;51008;51.504;11.548;2023-04-03T08:25:55;6.38;;;1.73;;
64598;SDS011;51008;51.504;11.548;2023-04-03T08:31:01;3.47;;;1.50;;
64598;SDS011;51008;51.504;11.548;2023-04-03T08:36:04;5.20;;;1.40;;
64598;SDS011;51008;51.504;11.548;2023-04-03T08:41:29;6.93;;;1.60;;
64598;SDS011;51008;51.504;11.548;2023-04-03T08:51:59;5.45;;;1.50;;
64598;SDS011;51008;51.504;11.548;2023-04-03T08:57:04;5.78;;;1.80;;
64598;SDS011;51008;51.504;11.548;2023-04-03T09:07:30;8.27;;;1.63;;
64598;SDS011;51008;51.504;11.548;2023-04-03T09:12:41;10.77;;;1.80;;
64598;SDS011;51008;51.504;11.548;2023-04-03T09:22:47;4.65;;;1.27;;
64598;SDS011;51008;51.504;11.548;2023-04-03T09:27:48;7.28;;;2.05;;
64598;SDS011;51008;51.504;11.548;2023-04-03T09:32:51;7.18;;;1.50;;
64598;SDS011;51008;51.504;11.548;2023-04-03T09:37:54;7.20;;;1.50;;
64598;SDS011;51008;51.504;11.548;2023-04-03T09:43:01;3.72;;;1.10;;
64598;SDS011;51008;51.504;11.548;2023-04-03T09:48:23;5.10;;;1.08;;
64598;SDS011;51008;51.504;11.548;2023-04-03T10:03:32;7.32;;;1.27;;
64598;SDS011;51008;51.504;11.548;2023-04-03T10:08:38;5.65;;;1.30;;
64598;SDS011;51008;51.504;11.548;2023-04-03T10:13:49;8.85;;;1.67;;
64598;SDS011;51008;51.504;11.548;2023-04-03T10:24:07;2.70;;;1.00;;
64598;SDS011;51008;51.504;11.548;2023-04-03T10:29:22;4.72;;;1.00;;
64598;SDS011;51008;51.504;11.548;2023-04-03T10:34:44;6.38;;;1.60;;
64598;SDS011;51008;51.504;11.548;2023-04-03T10:39:49;3.55;;;0.90;;
64598;SDS011;51008;51.504;11.548;2023-04-03T10:45:19;7.67;;;1.30;;
64598;SDS011;51008;51.504;11.548;2023-04-03T10:55:43;6.55;;;1.48;;
64598;SDS011;51008;51.504;11.548;2023-04-03T11:00:57;3.30;;;1.00;;
64598;SDS011;51008;51.504;11.548;2023-04-03T11:06:05;4.13;;;1.27;;
64598;SDS011;51008;51.504;11.548;2023-04-03T11:11:11;7.55;;;1.40;;
64598;SDS011;51008;51.504;11.548;2023-04-03T11:16:17;5.97;;;1.23;;
64598;SDS011;51008;51.504;11.548;2023-04-03T11:22:11;3.55;;;1.05;;
64598;SDS011;51008;51.504;11.548;2023-04-03T11:26:47;3.33;;;1.20;;
64598;SDS011;51008;51.504;11.548;2023-04-03T11:48:47;7.10;;;1.85;;
64598;SDS011;51008;51.504;11.548;2023-04-03T11:53:42;8.05;;;1.52;;
64598;SDS011;51008;51.504;11.548;2023-04-03T11:58:46;5.28;;;1.40;;
64598;SDS011;51008;51.504;11.548;2023-04-03T12:04:11;5.38;;;1.73;;
64598;SDS011;51008;51.504;11.548;2023-04-03T12:09:27;4.15;;;1.25;;
64598;SDS011;51008;51.504;11.548;2023-04-03T12:24:33;5.95;;;1.27;;
64598;SDS011;51008;51.504;11.548;2023-04-03T12:29:43;6.57;;;1.63;;
64598;SDS011;51008;51.504;11.548;2023-04-03T12:40:21;6.28;;;1.58;;
64598;SDS011;51008;51.504;11.548;2023-04-03T12:45:40;8.13;;;1.80;;
64598;SDS011;51008;51.504;11.548;2023-04-03T12:50:45;2.40;;;1.50;;
64598;SDS011;51008;51.504;11.548;2023-04-03T12:55:47;5.30;;;1.23;;
64598;SDS011;51008;51.504;11.548;2023-04-03T13:06:30;6.38;;;1.42;;
64598;SDS011;51008;51.504;11.548;2023-04-03T13:11:38;6.75;;;1.75;;
64598;SDS011;51008;51.504;11.548;2023-04-03T13:16:42;5.60;;;1.60;;
64598;SDS011;51008;51.504;11.548;2023-04-03T13:21:59;6.28;;;1.42;;
64598;SDS011;51008;51.504;11.548;2023-04-03T13:27:04;7.72;;;1.75;;
64598;SDS011;51008;51.504;11.548;2023-04-03T13:32:13;5.88;;;1.55;;
64598;SDS011;51008;51.504;11.548;2023-04-03T13:42:27;4.18;;;1.13;;
64598;SDS011;51008;51.504;11.548;2023-04-03T13:47:37;4.20;;;1.33;;
64598;SDS011;51008;51.504;11.548;2023-04-03T13:52:45;7.45;;;1.90;;
64598;SDS011;51008;51.504;11.548;2023-04-03T14:02:59;6.07;;;1.40;;
64598;SDS011;51008;51.504;11.548;2023-04-03T14:08:01;4.43;;;1.20;;
64598;SDS011;51008;51.504;11.548;2023-04-03T14:13:02;2.45;;;1.00;;
64598;SDS011;51008;51.504;11.548;2023-04-03T14:18:04;3.35;;;1.40;;
64598;SDS011;51008;51.504;11.548;2023-04-03T14:23:05;4.22;;;1.15;;
64598;SDS011;51008;51.504;11.548;2023-04-03T14:28:16;6.38;;;1.48;;
64598;SDS011;51008;51.504;11.548;2023-04-03T14:33:21;4.63;;;1.13;;
64598;SDS011;51008;51.504;11.548;2023-04-03T14:38:29;5.22;;;1.38;;
64598;SDS011;51008;51.504;11.548;2023-04-03T14:43:31;5.18;;;1.45;;
64598;SDS011;51008;51.504;11.548;2023-04-03T14:48:32;7.75;;;1.50;;
64598;SDS011;51008;51.504;11.548;2023-04-03T14:53:33;4.15;;;1.40;;
64598;SDS011;51008;51.504;11.548;2023-04-03T14:58:35;5.18;;;1.90;;
64598;SDS011;51008;51.504;11.548;2023-04-03T15:03:36;6.88;;;1.40;;
64598;SDS011;51008;51.504;11.548;2023-04-03T15:08:36;7.20;;;1.40;;
64598;SDS011;51008;51.504;11.548;2023-04-03T15:13:38;5.85;;;1.88;;
64598;SDS011;51008;51.504;11.548;2023-04-03T15:18:39;6.13;;;1.50;;
64598;SDS011;51008;51.504;11.548;2023-04-03T15:23:40;5.82;;;1.30;;
64598;SDS011;51008;51.504;11.548;2023-04-03T15:28:41;4.10;;;1.25;;
64598;SDS011;51008;51.504;11.548;2023-04-03T15:33:43;5.32;;;1.63;;
64598;SDS011;51008;51.504;11.548;2023-04-03T15:38:44;3.72;;;1.70;;
64598;SDS011;51008;51.504;11.548;2023-04-03T15:43:46;2.35;;;1.20;;
64598;SDS011;51008;51.504;11.548;2023-04-03T15:48:47;5.30;;;1.63;;
64598;SDS011;51008;51.504;11.548;2023-04-03T15:53:50;4.63;;;1.70;;
64598;SDS011;51008;51.504;11.548;2023-04-03T15:58:51;3.05;;;1.20;;
64598;SDS011;51008;51.504;11.548;2023-04-03T16:03:52;5.63;;;1.60;;
64598;SDS011;51008;51.504;11.548;2023-04-03T16:08:53;5.47;;;1.40;;
64598;SDS011;51008;51.504;11.548;2023-04-03T16:13:57;5.43;;;1.48;;
64598;SDS011;51008;51.504;11.548;2023-04-03T16:18:58;5.20;;;1.52;;
64598;SDS011;51008;51.504;11.548;2023-04-03T16:23:59;6.28;;;1.27;;
64598;SDS011;51008;51.504;11.548;2023-04-03T16:29:01;6.30;;;1.30;;
64598;SDS011;51008;51.504;11.548;2023-04-03T16:34:02;4.45;;;1.58;;
64598;SDS011;51008;51.504;11.548;2023-04-03T16:39:03;5.57;;;1.52;;
64598;SDS011;51008;51.504;11.548;2023-04-03T16:44:04;5.88;;;1.92;;
64598;SDS011;51008;51.504;11.548;2023-04-03T16:49:05;4.40;;;1.20;;
64598;SDS011;51008;51.504;11.548;2023-04-03T16:54:06;6.50;;;1.30;;
64598;SDS011;51008;51.504;11.548;2023-04-03T16:59:07;3.70;;;1.33;;
64598;SDS011;51008;51.504;11.548;2023-04-03T17:04:08;4.15;;;1.73;;
64598;SDS011;51008;51.504;11.548;2023-04-03T17:09:09;4.68;;;1.40;;
64598;SDS011;51008;51.504;11.548;2023-04-03T17:14:10;4.05;;;1.42;;
64598;SDS011;51008;51.504;11.548;2023-04-03T17:19:11;5.88;;;1.50;;
64598;SDS011;51008;51.504;11.548;2023-04-03T17:24:12;4.05;;;1.92;;
64598;SDS011;51008;51.504;11.548;2023-04-03T17:29:14;4.50;;;1.40;;
64598;SDS011;51008;51.504;11.548;2023-04-03T17:34:15;4.85;;;1.75;;
64598;SDS011;51008;51.504;11.548;2023-04-03T17:39:16;5.07;;;1.63;;
64598;SDS011;51008;51.504;11.548;2023-04-03T17:44:17;3.83;;;1.48;;
64598;SDS011;51008;51.504;11.548;2023-04-03T17:49:18;6.07;;;1.20;;
64598;SDS011;51008;51.504;11.548;2023-04-03T17:54:19;2.80;;;1.35;;
64598;SDS011;51008;51.504;11.548;2023-04-03T17:59:20;3.97;;;1.42;;
64598;SDS011;51008;51.504;11.548;2023-04-03T18:04:21;5.60;;;1.60;;
64598;SDS011;51008;51.504;11.548;2023-04-03T18:09:27;3.88;;;1.48;;
64598;SDS011;51008;51.504;11.548;2023-04-03T18:14:31;3.97;;;1.60;;
64598;SDS011;51008;51.504;11.548;2023-04-03T18:19:33;2.28;;;1.10;;
64598;SDS011;51008;51.504;11.548;2023-04-03T18:24:34;4.80;;;1.40;;
64598;SDS011;51008;51.504;11.548;2023-04-03T18:29:35;4.47;;;1.63;;
64598;SDS011;51008;51.504;11.548;2023-04-03T18:34:40;3.38;;;1.25;;
64598;SDS011;51008;51.504;11.548;2023-04-03T18:39:41;7.45;;;1.50;;
64598;SDS011;51008;51.504;11.548;2023-04-03T18:44:43;4.55;;;1.42;;
64598;SDS011;51008;51.504;11.548;2023-04-03T18:49:47;5.85;;;1.88;;
64598;SDS011;51008;51.504;11.548;2023-04-03T18:54:48;4.10;;;1.60;;
64598;SDS011;51008;51.504;11.548;2023-04-03T18:59:49;4.63;;;1.63;;
64598;SDS011;51008;51.504;11.548;2023-04-03T19:04:51;3.88;;;1.40;;
64598;SDS011;51008;51.504;11.548;2023-04-03T19:09:53;4.32;;;1.40;;
64598;SDS011;51008;51.504;11.548;2023-04-03T19:14:55;4.45;;;1.42;;
64598;SDS011;51008;51.504;11.548;2023-04-03T19:19:58;5.00;;;1.77;;
64598;SDS011;51008;51.504;11.548;2023-04-03T19:25:00;6.15;;;1.45;;
64598;SDS011;51008;51.504;11.548;2023-04-03T19:30:01;3.50;;;1.25;;
64598;SDS011;51008;51.504;11.548;2023-04-03T19:35:02;5.57;;;1.70;;
64598;SDS011;51008;51.504;11.548;2023-04-03T19:40:04;5.70;;;1.40;;
64598;SDS011;51008;51.504;11.548;2023-04-03T19:45:06;6.15;;;1.58;;
64598;SDS011;51008;51.504;11.548;2023-04-03T19:50:07;6.78;;;1.58;;
64598;SDS011;51008;51.504;11.548;2023-04-03T19:55:09;3.78;;;1.42;;
64598;SDS011;51008;51.504;11.548;2023-04-03T20:00:10;5.70;;;1.95;;
64598;SDS011;51008;51.504;11.548;2023-04-03T20:05:12;6.00;;;1.73;;
64598;SDS011;51008;51.504;11.548;2023-04-03T20:10:13;6.20;;;1.42;;
64598;SDS011;51008;51.504;11.548;2023-04-03T20:15:15;5.85;;;1.77;;
64598;SDS011;51008;51.504;11.548;2023-04-03T20:20:16;5.40;;;1.60;;
64598;SDS011;51008;51.504;11.548;2023-04-03T20:25:17;3.47;;;1.30;;
64598;SDS011;51008;51.504;11.548;2023-04-03T20:30:18;2.92;;;1.30;;
64598;SDS011;51008;51.504;11.548;2023-04-03T20:35:20;6.03;;;1.75;;
64598;SDS011;51008;51.504;11.548;2023-04-03T20:40:20;5.82;;;1.60;;
64598;SDS011;51008;51.504;11.548;2023-04-03T20:45:21;2.88;;;1.20;;
64598;SDS011;51008;51.504;11.548;2023-04-03T20:50:23;3.08;;;1.50;;
64598;SDS011;51008;51.504;11.548;2023-04-03T20:55:28;2.95;;;1.60;;
64598;SDS011;51008;51.504;11.548;2023-04-03T21:00:30;4.63;;;1.52;;
64598;SDS011;51008;51.504;11.548;2023-04-03T21:05:31;2.58;;;1.40;;
64598;SDS011;51008;51.504;11.548;2023-04-03T21:21:21;3.72;;;1.42;;
64598;SDS011;51008;51.504;11.548;2023-04-03T21:26:27;7.43;;;2.13;;
64598;SDS011;51008;51.504;11.548;2023-04-03T21:37:04;3.40;;;1.55;;
64598;SDS011;51008;51.504;11.548;2023-04-03T21:42:06;3.67;;;1.60;;
64598;SDS011;51008;51.504;11.548;2023-04-03T21:47:07;3.92;;;1.77;;
64598;SDS011;51008;51.504;11.548;2023-04-03T21:52:08;2.47;;;1.50;;
64598;SDS011;51008;51.504;11.548;2023-04-03T21:57:09;3.67;;;1.77;;
64598;SDS011;51008;51.504;11.548;2023-04-03T22:02:10;3.55;;;1.60;;
64598;SDS011;51008;51.504;11.548;2023-04-03T22:07:12;4.47;;;1.77;;
64598;SDS011;51008;51.504;11.548;2023-04-03T22:12:13;5.45;;;1.88;;
64598;SDS011;51008;51.504;11.548;2023-04-03T22:17:14;3.22;;;1.52;;
64598;SDS011;51008;51.504;11.548;2023-04-03T22:22:15;5.47;;;1.77;;
64598;SDS011;51008;51.504;11.548;2023-04-03T22:27:16;4.75;;;1.88;;
64598;SDS011;51008;51.504;11.548;2023-04-03T22:32:17;3.05;;;1.60;;
64598;SDS011;51008;51.504;11.548;2023-04-03T22:37:18;6.05;;;2.10;;
64598;SDS011;51008;51.504;11.548;2023-04-03T22:42:19;5.47;;;1.80;;
64598;SDS011;51008;51.504;11.548;2023-04-03T22:47:20;5.10;;;1.83;;
64598;SDS011;51008;51.504;11.548;2023-04-03T22:52:22;3.85;;;1.75;;
64598;SDS011;51008;51.504;11.548;2023-04-03T22:57:23;3.78;;;1.83;;
64598;SDS011;51008;51.504;11.548;2023-04-03T23:02:24;2.25;;;1.50;;
64598;SDS011;51008;51.504;11.548;2023-04-03T23:07:25;6.97;;;1.80;;
64598;SDS011;51008;51.504;11.548;2023-04-03T23:12:26;3.42;;;1.70;;
64598;SDS011;51008;51.504;11.548;2023-04-03T23:17:28;5.30;;;1.40;;
64598;SDS011;51008;51.504;11.548;2023-04-03T23:22:29;2.95;;;1.48;;
64598;SDS011;51008;51.504;11.548;2023-04-03T23:27:30;5.10;;;1.60;;
64598;SDS011;51008;51.504;11.548;2023-04-03T23:32:31;4.82;;;1.50;;
64598;SDS011;51008;51.504;11.548;2023-04-03T23:37:32;4.13;;;1.30;;
64598;SDS011;51008;51.504;11.548;2023-04-03T23:42:33;4.03;;;1.48;;
64598;SDS011;51008;51.504;11.548;2023-04-03T23:47:35;2.90;;;1.42;;
64598;SDS011;51008;51.504;11.548;2023-04-03T23:52:36;5.65;;;1.98;;
64598;SDS011;51008;51.504;11.548;2023-04-03T23:57:39;4.18;;;1.70;;
